createdAt,value
2022-12-28T00:01:49.028Z,101024.00
2022-12-28T00:04:15.688Z,101013.19
2022-12-28T00:06:42.125Z,101011.22
2022-12-28T00:09:11.312Z,101003.09
2022-12-28T00:11:37.898Z,101003.78
2022-12-28T00:14:04.318Z,100994.81
2022-12-28T00:16:33.898Z,100983.16
2022-12-28T00:19:02.936Z,100968.81
2022-12-28T00:21:29.897Z,100965.16
2022-12-28T00:23:58.846Z,100961.38
2022-12-28T00:26:27.238Z,100955.06
2022-12-28T00:28:58.362Z,100945.38
2022-12-28T00:31:28.239Z,100935.25
2022-12-28T00:33:54.709Z,100929.78
2022-12-28T00:36:21.029Z,100927.84
2022-12-28T00:38:47.409Z,100919.66
2022-12-28T00:41:13.779Z,100910.69
2022-12-28T00:43:40.224Z,100914.06
2022-12-28T00:46:06.750Z,100920.09
2022-12-28T00:48:33.179Z,100911.97
2022-12-28T00:51:08.340Z,100925.06
2022-12-28T00:53:35.044Z,100916.03
2022-12-28T00:56:09.892Z,100917.59
2022-12-28T00:58:36.694Z,100921.00
2022-12-28T01:01:04.462Z,100923.38
2022-12-28T01:03:31.078Z,100909.06
2022-12-28T01:05:57.474Z,100901.72
2022-12-28T01:08:23.917Z,100907.66
2022-12-28T01:10:50.452Z,100905.69
2022-12-28T01:13:16.864Z,100903.72
2022-12-28T01:15:43.212Z,100902.59
2022-12-28T01:18:09.590Z,100892.75
2022-12-28T01:20:40.332Z,100894.47
2022-12-28T01:23:07.023Z,100889.97
2022-12-28T01:25:34.074Z,100894.31
2022-12-28T01:28:00.391Z,100883.78
2022-12-28T01:30:26.813Z,100874.75
2022-12-28T01:32:53.364Z,100875.75
2022-12-28T01:35:19.783Z,100861.56
2022-12-28T01:37:46.139Z,100859.84
2022-12-28T01:40:15.765Z,100842.97
2022-12-28T01:42:42.180Z,100838.47
2022-12-28T01:45:22.092Z,100823.28
2022-12-28T01:47:53.195Z,100828.63
2022-12-28T01:50:24.970Z,100829.47
2022-12-28T01:53:04.864Z,100827.66
2022-12-28T01:55:35.279Z,100821.47
2022-12-28T01:58:10.130Z,100812.44
2022-12-28T02:00:36.862Z,100801.75
2022-12-28T02:03:10.645Z,100799.09
2022-12-28T02:05:41.420Z,100790.06
2022-12-28T02:08:17.166Z,100791.78
2022-12-28T02:10:46.009Z,100786.44
2022-12-28T02:13:15.363Z,100771.25
2022-12-28T02:15:42.617Z,100778.25
2022-12-28T02:18:09.906Z,100766.72
2022-12-28T02:21:11.108Z,100778.25
2022-12-28T02:24:07.543Z,100762.94
2022-12-28T02:26:46.167Z,100759.25
2022-12-28T02:29:37.582Z,100745.06
2022-12-28T02:32:16.681Z,100734.38
2022-12-28T02:35:08.725Z,100722.84
2022-12-28T02:37:51.344Z,100716.66
2022-12-28T02:40:23.745Z,100711.31
2022-12-28T02:42:52.207Z,100694.56
2022-12-28T02:45:53.867Z,100692.72
2022-12-28T02:48:39.334Z,100686.56
2022-12-28T02:51:21.840Z,100687.56
2022-12-28T02:53:58.884Z,100679.66
2022-12-28T02:56:44.331Z,100677.69
2022-12-28T02:59:16.783Z,100674.91
2022-12-28T03:01:49.299Z,100673.06
2022-12-28T03:04:30.128Z,100672.06
2022-12-28T03:07:26.879Z,100663.91
2022-12-28T03:09:59.767Z,100659.81
2022-12-28T03:12:38.487Z,100648.03
2022-12-28T03:15:10.427Z,100662.34
2022-12-28T03:17:59.529Z,100658.72
2022-12-28T03:20:49.496Z,100638.16
2022-12-28T03:23:41.524Z,100642.38
2022-12-28T03:26:29.627Z,100632.53
2022-12-28T03:29:17.903Z,100625.06
2022-12-28T03:31:44.730Z,100608.88
2022-12-28T03:34:11.218Z,100614.09
2022-12-28T03:37:10.100Z,100607.44
2022-12-28T03:39:50.555Z,100590.13
2022-12-28T03:42:44.346Z,100601.53
2022-12-28T03:45:45.166Z,100595.72
2022-12-28T03:48:09.259Z,100586.56
2022-12-28T03:50:38.557Z,100573.75
2022-12-28T03:53:04.898Z,100569.06
2022-12-28T03:55:31.400Z,100558.22
2022-12-28T03:57:57.852Z,100548.06
2022-12-28T04:00:24.287Z,100550.59
2022-12-28T04:02:50.721Z,100544.13
2022-12-28T04:05:17.263Z,100550.00
2022-12-28T04:07:43.707Z,100543.50
2022-12-28T04:10:11.736Z,100539.00
2022-12-28T04:12:38.181Z,100538.00
2022-12-28T04:15:05.488Z,100533.50
2022-12-28T04:17:31.871Z,100536.03
2022-12-28T04:19:58.289Z,100526.19
2022-12-28T04:22:24.647Z,100532.34
2022-12-28T04:24:51.066Z,100523.34
2022-12-28T04:27:17.488Z,100513.63
2022-12-28T04:29:43.928Z,100522.34
2022-12-28T04:32:10.285Z,100521.53
2022-12-28T04:34:36.669Z,100510.97
2022-12-28T04:37:03.035Z,100502.94
2022-12-28T04:39:55.666Z,100500.25
2022-12-28T04:42:15.713Z,100507.97
2022-12-28T04:44:41.981Z,100493.44
2022-12-28T04:47:08.457Z,100482.91
2022-12-28T04:49:34.800Z,100485.88
2022-12-28T04:52:01.181Z,100481.66
2022-12-28T04:54:27.608Z,100477.47
2022-12-28T04:56:53.950Z,100476.50
2022-12-28T04:59:20.379Z,100466.75
2022-12-28T05:01:46.942Z,100475.66
2022-12-28T05:04:13.440Z,100471.13
2022-12-28T05:06:39.946Z,100468.59
2022-12-28T05:09:06.330Z,100468.47
2022-12-28T05:11:32.840Z,100476.31
2022-12-28T05:13:59.455Z,100464.66
2022-12-28T05:16:27.856Z,100472.66
2022-12-28T05:18:56.537Z,100464.47
2022-12-28T05:21:25.788Z,100475.03
2022-12-28T05:23:53.315Z,100471.34
2022-12-28T05:26:22.601Z,100460.50
2022-12-28T05:28:49.371Z,100460.50
2022-12-28T05:31:21.793Z,100458.53
2022-12-28T05:33:48.648Z,100459.38
2022-12-28T05:36:17.803Z,100466.56
2022-12-28T05:38:44.850Z,100462.03
2022-12-28T05:41:23.268Z,100461.03
2022-12-28T05:43:50.226Z,100458.22
2022-12-28T05:46:24.593Z,100469.63
2022-12-28T05:48:51.457Z,100450.88
2022-12-28T05:51:19.815Z,100457.91
2022-12-28T05:53:46.684Z,100457.91
2022-12-28T05:56:14.524Z,100448.88
2022-12-28T05:58:42.852Z,100449.75
2022-12-28T06:01:17.648Z,100440.56
2022-12-28T06:03:45.307Z,100449.25
2022-12-28T06:06:17.404Z,100442.09
2022-12-28T06:08:45.376Z,100441.09
2022-12-28T06:11:15.164Z,100424.88
2022-12-28T06:13:41.543Z,100416.84
2022-12-28T06:16:11.337Z,100423.88
2022-12-28T06:18:37.809Z,100425.72
2022-12-28T06:21:07.294Z,100420.38
2022-12-28T06:23:33.763Z,100423.88
2022-12-28T06:26:02.125Z,100432.59
2022-12-28T06:28:29.088Z,100431.59
2022-12-28T06:31:03.521Z,100434.13
2022-12-28T06:33:30.640Z,100440.31
2022-12-28T06:35:56.996Z,100435.66
2022-12-28T06:38:23.368Z,100440.00
2022-12-28T06:41:12.077Z,100438.00
2022-12-28T06:43:37.016Z,100435.72
2022-12-28T06:46:03.894Z,100431.19
2022-12-28T06:48:31.480Z,100422.16
2022-12-28T06:51:04.373Z,100425.69
2022-12-28T06:53:34.356Z,100435.41
2022-12-28T06:56:08.236Z,100431.72
2022-12-28T06:58:34.771Z,100438.75
2022-12-28T07:01:14.009Z,100433.09
2022-12-28T07:03:41.666Z,100427.72
2022-12-28T07:06:08.197Z,100431.09
2022-12-28T07:08:35.940Z,100430.94
2022-12-28T07:11:08.620Z,100429.94
2022-12-28T07:13:35.495Z,100431.63
2022-12-28T07:16:03.742Z,100418.09
2022-12-28T07:18:30.146Z,100419.75
2022-12-28T07:21:01.817Z,100418.59
2022-12-28T07:23:30.145Z,100417.78
2022-12-28T07:25:58.090Z,100415.91
2022-12-28T07:28:24.991Z,100408.72
2022-12-28T07:42:10.756Z,100423.13
2022-12-28T07:44:38.380Z,100418.88
2022-12-28T07:47:05.340Z,100423.94
2022-12-28T07:49:31.698Z,100421.63
2022-12-28T07:51:58.036Z,100421.31
2022-12-28T07:54:24.443Z,100422.97
2022-12-28T07:56:50.845Z,100421.31
2022-12-28T07:59:17.165Z,100429.34
2022-12-28T08:01:43.601Z,100425.00
2022-12-28T08:04:15.892Z,100435.72
2022-12-28T08:06:45.105Z,100432.34
2022-12-28T08:09:13.735Z,100437.72
2022-12-28T08:11:42.894Z,100438.53
2022-12-28T08:14:10.357Z,100436.69
2022-12-28T08:16:39.487Z,100428.66
2022-12-28T08:19:07.295Z,100425.00
2022-12-28T08:21:36.942Z,100425.00
2022-12-28T08:24:03.996Z,100429.34
2022-12-28T08:26:36.360Z,100426.53
2022-12-28T08:29:07.094Z,100419.31
2022-12-28T08:31:36.435Z,100417.47
2022-12-28T08:34:04.721Z,100428.03
2022-12-28T08:36:31.170Z,100417.31
2022-12-28T08:38:57.806Z,100420.66
2022-12-28T08:41:25.939Z,100418.66
2022-12-28T08:43:53.816Z,100419.34
2022-12-28T08:46:32.311Z,100416.50
2022-12-28T08:49:00.109Z,100428.72
2022-12-28T08:51:29.499Z,100422.22
2022-12-28T08:53:55.859Z,100417.72
2022-12-28T08:56:24.861Z,100429.09
2022-12-28T08:58:52.026Z,100426.13
2022-12-28T09:01:24.976Z,100425.78
2022-12-28T09:03:53.675Z,100425.63
2022-12-28T09:06:30.283Z,100426.16
2022-12-28T09:09:06.621Z,100419.78
2022-12-28T09:11:37.034Z,100426.50
2022-12-28T09:14:05.208Z,100427.16
2022-12-28T09:16:31.806Z,100421.66
2022-12-28T09:19:00.447Z,100423.19
2022-12-28T09:21:29.661Z,100425.56
2022-12-28T09:23:56.071Z,100426.38
2022-12-28T09:26:25.420Z,100430.59
2022-12-28T09:28:54.497Z,100426.72
2022-12-28T09:31:23.439Z,100432.94
2022-12-28T09:36:46.749Z,100430.47
2022-12-28T09:39:17.255Z,100429.28
2022-12-28T09:41:50.108Z,100422.91
2022-12-28T09:44:45.601Z,100420.75
2022-12-28T09:47:36.932Z,100409.69
2022-12-28T09:50:09.007Z,100415.56
2022-12-28T09:52:49.652Z,100413.56
2022-12-28T09:55:18.817Z,100415.22
2022-12-28T09:57:49.387Z,100407.88
2022-12-28T10:00:21.840Z,100408.53
2022-12-28T10:03:01.877Z,100403.84
2022-12-28T10:05:29.134Z,100405.53
2022-12-28T10:07:58.435Z,100399.81
2022-12-28T10:10:27.085Z,100400.50
2022-12-28T10:12:54.009Z,100397.47
2022-12-28T10:15:28.599Z,100391.78
2022-12-28T10:17:55.056Z,100398.66
2022-12-28T10:20:22.760Z,100386.75
2022-12-28T10:22:55.895Z,100385.59
2022-12-28T10:25:24.995Z,100384.41
2022-12-28T10:27:52.231Z,100379.72
2022-12-28T10:30:27.032Z,100381.06
2022-12-28T10:33:03.068Z,100379.03
2022-12-28T10:35:48.344Z,100376.88
2022-12-28T10:38:30.931Z,100375.53
2022-12-28T10:41:05.079Z,100370.97
2022-12-28T10:43:36.621Z,100368.13
2022-12-28T10:46:06.723Z,100374.34
2022-12-28T10:48:38.064Z,100377.69
2022-12-28T10:51:18.606Z,100371.31
2022-12-28T10:53:48.301Z,100370.31
2022-12-28T10:56:14.589Z,100370.31
2022-12-28T10:58:45.948Z,100368.47
2022-12-28T11:01:12.327Z,100367.28
2022-12-28T11:03:40.289Z,100354.56
2022-12-28T11:06:09.546Z,100352.53
2022-12-28T11:08:36.702Z,100347.16
2022-12-28T11:11:03.296Z,100342.78
2022-12-28T11:13:30.075Z,100349.00
2022-12-28T11:15:56.540Z,100344.50
2022-12-28T11:18:23.145Z,100342.78
2022-12-28T11:20:52.369Z,100330.38
2022-12-28T11:23:21.682Z,100333.06
2022-12-28T11:25:48.526Z,100334.94
2022-12-28T11:28:22.436Z,100333.06
2022-12-28T11:30:51.091Z,100328.69
2022-12-28T11:33:44.605Z,100328.69
2022-12-28T11:36:32.201Z,100317.94
2022-12-28T11:38:58.841Z,100316.28
2022-12-28T11:41:30.338Z,100324.19
2022-12-28T11:44:02.847Z,100315.09
2022-12-28T11:46:35.223Z,100310.41
2022-12-28T11:49:26.205Z,100313.94
2022-12-28T11:52:34.059Z,100317.28
2022-12-28T11:55:39.495Z,100313.59
2022-12-28T11:58:30.620Z,100300.00
2022-12-28T12:00:59.861Z,100294.78
2022-12-28T12:03:59.001Z,100295.47
2022-12-28T12:06:43.462Z,100289.25
2022-12-28T12:09:22.183Z,100291.75
2022-12-28T12:11:50.671Z,100289.06
2022-12-28T12:14:23.972Z,100291.59
2022-12-28T12:17:02.834Z,100284.38
2022-12-28T12:19:37.356Z,100287.88
2022-12-28T12:22:13.971Z,100270.78
2022-12-28T12:24:50.036Z,100277.81
2022-12-28T12:27:32.284Z,100275.97
2022-12-28T12:30:04.846Z,100269.59
2022-12-28T12:32:42.735Z,100271.25
2022-12-28T12:35:15.611Z,100273.13
2022-12-28T12:38:29.354Z,100272.94
2022-12-28T12:41:23.958Z,100262.19
2022-12-28T12:44:29.921Z,100264.88
2022-12-28T12:47:37.553Z,100257.69
2022-12-28T12:50:24.470Z,100260.38
2022-12-28T12:53:17.241Z,100252.31
2022-12-28T12:55:55.999Z,100255.97
2022-12-28T12:58:52.572Z,100250.47
2022-12-28T13:01:27.582Z,100253.97
2022-12-28T13:04:06.560Z,100257.50
2022-12-28T13:06:35.660Z,100251.13
2022-12-28T13:09:06.030Z,100247.56
2022-12-28T13:11:36.893Z,100243.91
2022-12-28T13:14:04.493Z,100230.47
2022-12-28T13:16:32.525Z,100236.66
2022-12-28T13:19:07.436Z,100233.78
2022-12-28T13:21:43.034Z,100225.56
2022-12-28T13:24:23.421Z,100222.06
2022-12-28T13:26:50.276Z,100216.03
2022-12-28T13:29:25.297Z,100216.84
2022-12-28T13:31:52.362Z,100215.19
2022-12-28T13:34:26.525Z,100210.66
2022-12-28T13:37:13.655Z,100213.34
2022-12-28T13:39:42.449Z,100214.34
2022-12-28T13:42:25.645Z,100207.13
2022-12-28T13:45:00.224Z,100211.47
2022-12-28T13:47:35.058Z,100207.13
2022-12-28T13:50:03.756Z,100204.44
2022-12-28T13:52:38.570Z,100202.44
2022-12-28T13:55:15.028Z,100204.91
2022-12-28T13:57:48.186Z,100206.63
2022-12-28T14:00:18.622Z,100210.13
2022-12-28T14:02:46.359Z,100219.00
2022-12-28T14:05:22.554Z,100216.16
2022-12-28T14:07:50.618Z,100219.84
2022-12-28T14:10:18.341Z,100203.72
2022-12-28T14:12:45.696Z,100204.41
2022-12-28T14:15:13.341Z,100193.66
2022-12-28T14:17:41.076Z,100191.81
2022-12-28T14:20:08.847Z,100184.78
2022-12-28T14:22:38.059Z,100160.59
2022-12-28T14:25:06.372Z,100166.78
2022-12-28T14:27:36.899Z,100152.53
2022-12-28T14:30:05.534Z,100166.78
2022-12-28T14:32:39.010Z,100151.50
2022-12-28T14:35:17.838Z,100155.03
2022-12-28T14:37:46.453Z,100148.81
2022-12-28T14:40:25.198Z,100150.53
2022-12-28T14:42:53.971Z,100142.63
2022-12-28T14:48:38.069Z,100141.97
2022-12-28T14:51:23.509Z,100140.28
2022-12-28T14:54:20.166Z,100134.09
2022-12-28T14:56:52.029Z,100138.59
2022-12-28T14:59:30.487Z,100134.41
2022-12-28T15:00:25.715Z,100148.00
2022-12-28T15:01:56.941Z,100134.63
2022-12-28T15:04:38.368Z,100126.72
2022-12-28T15:07:06.599Z,100115.34
2022-12-28T15:09:33.758Z,100105.78
2022-12-28T15:12:14.747Z,100102.25
2022-12-28T15:14:41.508Z,100107.97
2022-12-28T15:17:08.849Z,100112.53
2022-12-28T15:19:35.411Z,100105.50
2022-12-28T15:22:02.221Z,100099.25
2022-12-28T15:24:33.775Z,100102.13
2022-12-28T15:27:00.785Z,100094.75
2022-12-28T15:29:47.869Z,100086.84
2022-12-28T15:32:13.356Z,100087.16
2022-12-28T15:34:39.736Z,100076.59
2022-12-28T15:37:06.089Z,100078.63
2022-12-28T15:39:32.575Z,100074.25
2022-12-28T15:41:58.912Z,100077.97
2022-12-28T15:44:25.344Z,100073.59
2022-12-28T15:46:51.971Z,100071.94
2022-12-28T15:49:18.572Z,100047.78
2022-12-28T15:51:45.876Z,100053.31
2022-12-28T15:54:13.506Z,100038.06
2022-12-28T15:56:41.598Z,100035.38
2022-12-28T15:59:13.363Z,100038.88
2022-12-28T16:01:42.484Z,100030.16
2022-12-28T16:04:09.513Z,100021.09
2022-12-28T16:06:41.811Z,100032.69
2022-12-28T16:09:10.569Z,100025.47
2022-12-28T16:11:37.216Z,100018.25
2022-12-28T16:14:05.759Z,100011.00
2022-12-28T16:16:36.743Z,99998.41
2022-12-28T16:19:06.765Z,99993.03
2022-12-28T16:21:33.579Z,99997.59
2022-12-28T16:24:00.501Z,99997.41
2022-12-28T16:26:28.082Z,100000.94
2022-12-28T16:28:54.508Z,100003.78
2022-12-28T16:31:23.651Z,99986.84
2022-12-28T16:34:00.936Z,99991.22
2022-12-28T16:36:27.635Z,99985.19
2022-12-28T16:38:54.526Z,99984.34
2022-12-28T16:41:21.797Z,99970.06
2022-12-28T16:43:48.617Z,99962.88
2022-12-28T16:46:15.394Z,99959.16
2022-12-28T16:48:42.695Z,99953.81
2022-12-28T16:51:09.576Z,99955.47
2022-12-28T16:53:37.398Z,99947.41
2022-12-28T16:56:06.049Z,99942.91
2022-12-28T16:58:32.642Z,99932.31
2022-12-28T17:01:08.044Z,99926.94
2022-12-28T17:03:34.932Z,99923.59
2022-12-28T17:06:01.710Z,99933.50
2022-12-28T17:08:28.158Z,99927.31
2022-12-28T17:10:54.739Z,99926.66
2022-12-28T17:13:21.114Z,99921.28
2022-12-28T17:15:47.453Z,99921.50
2022-12-28T17:18:14.287Z,99920.47
2022-12-28T17:20:41.128Z,99922.13
2022-12-28T17:23:08.184Z,99908.69
2022-12-28T17:25:35.542Z,99909.56
2022-12-28T17:28:02.146Z,99900.47
2022-12-28T17:30:28.719Z,99902.97
2022-12-28T17:32:55.492Z,99894.72
2022-12-28T17:35:22.005Z,99890.19
2022-12-28T17:37:48.428Z,99887.34
2022-12-28T17:40:14.987Z,99873.72
2022-12-28T17:42:41.329Z,99879.94
2022-12-28T17:45:11.719Z,99865.50
2022-12-28T17:47:38.605Z,99875.19
2022-12-28T17:50:06.249Z,99870.69
2022-12-28T17:52:32.622Z,99856.06
2022-12-28T17:54:59.115Z,99858.56
2022-12-28T17:57:25.459Z,99854.00
2022-12-28T17:59:51.805Z,99848.63
2022-12-28T18:02:18.321Z,99846.59
2022-12-28T18:04:44.949Z,99848.28
2022-12-28T18:07:11.324Z,99844.59
2022-12-28T18:09:37.725Z,99839.22
2022-12-28T18:12:04.225Z,99833.84
2022-12-28T18:14:30.590Z,99830.13
2022-12-28T18:16:57.077Z,99830.13
2022-12-28T18:19:23.531Z,99826.81
2022-12-28T18:21:49.969Z,99825.97
2022-12-28T18:24:17.911Z,99818.75
2022-12-28T18:26:44.399Z,99819.75
2022-12-28T18:29:10.914Z,99820.97
2022-12-28T18:31:37.390Z,99820.13
2022-12-28T18:34:04.240Z,99813.09
2022-12-28T18:36:30.688Z,99811.41
2022-12-28T18:38:57.043Z,99808.06
2022-12-28T18:41:25.552Z,99804.75
2022-12-28T18:43:57.059Z,99802.25
2022-12-28T18:46:23.509Z,99802.44
2022-12-28T18:48:49.855Z,99797.25
2022-12-28T18:51:17.687Z,99793.09
2022-12-28T18:53:44.456Z,99783.38
2022-12-28T18:56:14.459Z,99772.63
2022-12-28T18:58:42.002Z,99779.00
2022-12-28T19:01:48.112Z,99772.81
2022-12-28T19:04:03.877Z,99771.16
2022-12-28T19:06:30.466Z,99764.94
2022-12-28T19:09:00.517Z,99761.63
2022-12-28T19:11:27.673Z,99753.75
2022-12-28T19:13:54.271Z,99746.72
2022-12-28T19:16:27.028Z,99756.78
2022-12-28T19:18:57.030Z,99744.56
2022-12-28T19:21:29.543Z,99746.22
2022-12-28T19:23:58.451Z,99743.75
2022-12-28T19:26:25.410Z,99736.91
2022-12-28T19:28:52.428Z,99737.91
2022-12-28T19:31:18.902Z,99737.06
2022-12-28T19:33:45.391Z,99733.56
2022-12-28T19:36:12.302Z,99726.53
2022-12-28T19:38:39.022Z,99709.56
2022-12-28T19:41:10.673Z,99709.78
2022-12-28T19:43:37.437Z,99709.13
2022-12-28T19:46:20.820Z,99706.44
2022-12-28T19:48:47.347Z,99703.94
2022-12-28T19:51:14.896Z,99694.88
2022-12-28T19:53:41.744Z,99679.78
2022-12-28T19:56:11.895Z,99687.00
2022-12-28T19:58:39.570Z,99682.47
2022-12-28T20:01:08.630Z,99686.00
2022-12-28T20:03:35.402Z,99679.59
2022-12-28T20:06:14.019Z,99674.69
2022-12-28T20:08:45.797Z,99676.53
2022-12-28T20:11:12.424Z,99673.03
2022-12-28T20:13:38.874Z,99670.19
2022-12-28T20:16:05.526Z,99669.16
2022-12-28T20:18:32.029Z,99648.72
2022-12-28T20:21:19.267Z,99661.09
2022-12-28T20:23:48.146Z,99653.88
2022-12-28T20:26:14.981Z,99644.78
2022-12-28T20:28:41.308Z,99647.47
2022-12-28T20:31:10.867Z,99654.69
2022-12-28T20:33:37.681Z,99654.69
2022-12-28T20:36:07.470Z,99648.34
2022-12-28T20:38:34.812Z,99624.19
2022-12-28T20:41:50.603Z,99647.13
2022-12-28T20:44:25.857Z,99638.88
2022-12-28T20:46:52.877Z,99639.91
2022-12-28T20:49:19.386Z,99643.41
2022-12-28T20:51:47.745Z,99629.81
2022-12-28T20:54:14.237Z,99628.13
2022-12-28T20:56:42.336Z,99636.19
2022-12-28T20:59:10.421Z,99632.50
2022-12-28T21:01:37.325Z,99615.38
2022-12-28T21:04:04.870Z,99618.06
2022-12-28T21:06:31.440Z,99614.34
2022-12-28T21:08:57.957Z,99628.41
2022-12-28T21:11:25.222Z,99625.72
2022-12-28T21:13:51.651Z,99622.88
2022-12-28T21:16:18.532Z,99612.78
2022-12-28T21:18:44.956Z,99603.53
2022-12-28T21:21:16.444Z,99594.22
2022-12-28T21:23:42.919Z,99597.94
2022-12-28T21:26:15.189Z,99593.00
2022-12-28T21:28:42.545Z,99593.00
2022-12-28T21:31:10.241Z,99592.00
2022-12-28T21:33:37.685Z,99592.84
2022-12-28T21:36:09.273Z,99588.13
2022-12-28T21:38:38.198Z,99590.59
2022-12-28T21:41:13.718Z,99585.88
2022-12-28T21:43:40.735Z,99585.88
2022-12-28T21:46:11.270Z,99586.34
2022-12-28T21:48:38.744Z,99584.50
2022-12-28T21:51:06.623Z,99579.78
2022-12-28T21:53:33.046Z,99576.69
2022-12-28T21:55:59.353Z,99561.19
2022-12-28T21:58:25.684Z,99554.63
2022-12-28T22:01:15.993Z,99567.69
2022-12-28T22:04:01.799Z,99569.16
2022-12-28T22:06:28.198Z,99562.75
2022-12-28T22:09:13.089Z,99562.56
2022-12-28T22:11:57.723Z,99556.00
2022-12-28T22:14:24.173Z,99565.50
2022-12-28T22:16:50.652Z,99551.88
2022-12-28T22:19:17.112Z,99556.22
2022-12-28T22:21:44.029Z,99553.16
2022-12-28T22:24:10.529Z,99562.69
2022-12-28T22:26:36.934Z,99557.94
2022-12-28T22:29:03.721Z,99554.03
2022-12-28T22:31:30.240Z,99543.94
2022-12-28T22:33:59.389Z,99539.22
2022-12-28T22:36:29.741Z,99544.19
2022-12-28T22:38:56.291Z,99535.09
2022-12-28T22:41:22.933Z,99534.72
2022-12-28T22:43:51.237Z,99536.19
2022-12-28T22:46:17.978Z,99523.59
2022-12-28T22:48:44.739Z,99516.19
2022-12-28T22:51:13.769Z,99522.19
2022-12-28T22:53:40.594Z,99517.47
2022-12-28T22:56:10.895Z,99518.09
2022-12-28T22:58:37.729Z,99517.06
2022-12-28T23:01:05.258Z,99524.72
2022-12-28T23:03:32.061Z,99517.13
2022-12-28T23:05:58.508Z,99514.22
2022-12-28T23:08:25.006Z,99504.94
2022-12-28T23:11:00.347Z,99511.78
2022-12-28T23:13:27.775Z,99514.28
2022-12-28T23:15:57.683Z,99524.63
2022-12-28T23:18:56.454Z,99518.03
2022-12-28T23:21:42.856Z,99513.31
2022-12-28T23:24:29.411Z,99519.75
2022-12-28T23:27:14.660Z,99514.38
2022-12-28T23:29:41.196Z,99508.16
2022-12-28T23:32:07.611Z,99513.53
2022-12-28T23:34:34.030Z,99501.09
2022-12-28T23:37:00.671Z,99501.97
2022-12-28T23:39:27.238Z,99492.22
2022-12-28T23:41:53.779Z,99477.94
2022-12-28T23:44:22.832Z,99474.22
2022-12-28T23:46:55.196Z,99483.31
2022-12-28T23:49:24.980Z,99470.53
2022-12-28T23:51:51.430Z,99465.31
2022-12-28T23:54:19.365Z,99445.69
2022-12-28T23:56:46.178Z,99451.06
2022-12-28T23:59:12.799Z,99439.25
